Time;durP1;ratioP1;P1;durP2;ratioP2;P2;SDS_P1;SDS_P2;PMS_P1;PMS_P2;Temp;Humidity;BMP_temperature;BMP_pressure;BME280_temperature;BME280_humidity;BME280_pressure;Samples;Min_cycle;Max_cycle;Signal;HPM_P1;HPM_P2
2023/12/06 00:00:37;;;;;;;13.70;7.57;;;0.20;99.90;;;;;;5056448;28;20362;-72
2023/12/06 00:03:03;;;;;;;10.57;6.65;;;0.20;99.90;;;;;;5056290;28;20048;-72
2023/12/06 00:05:30;;;;;;;10.45;6.88;;;0.20;99.90;;;;;;5056223;28;20037;-72
2023/12/06 00:07:55;;;;;;;8.85;6.13;;;0.20;99.90;;;;;;5056087;28;20033;-72
2023/12/06 00:10:21;;;;;;;13.10;6.68;;;0.20;99.90;;;;;;5056303;28;20043;-72
2023/12/06 00:12:47;;;;;;;8.15;5.72;;;0.30;99.90;;;;;;5055860;28;20124;-71
2023/12/06 00:15:12;;;;;;;7.93;5.05;;;0.30;99.90;;;;;;5056184;28;20040;-71
2023/12/06 00:17:38;;;;;;;9.30;6.18;;;0.30;99.90;;;;;;5056089;28;20496;-72
2023/12/06 00:20:05;;;;;;;12.07;6.32;;;0.20;99.90;;;;;;5056773;28;20029;-71
2023/12/06 00:22:31;;;;;;;9.68;5.80;;;0.10;99.90;;;;;;5056123;28;20447;-71
2023/12/06 00:24:57;;;;;;;10.00;6.30;;;0.10;99.90;;;;;;5071310;28;20029;-71
2023/12/06 00:27:23;;;;;;;10.65;6.18;;;0.10;99.90;;;;;;5055991;28;20503;-72
2023/12/06 00:29:48;;;;;;;13.85;7.65;;;0.10;99.90;;;;;;5055988;28;20468;-72
2023/12/06 00:32:14;;;;;;;12.23;7.25;;;0.10;99.90;;;;;;5055749;28;20025;-71
2023/12/06 00:34:43;;;;;;;12.38;7.65;;;0.10;99.90;;;;;;5071099;28;20025;-71
2023/12/06 00:37:08;;;;;;;13.05;7.95;;;0.20;99.90;;;;;;5055634;28;20076;-71
2023/12/06 00:39:34;;;;;;;14.15;8.05;;;0.10;99.90;;;;;;5056148;28;20109;-71
2023/12/06 00:42:00;;;;;;;12.85;7.55;;;0.10;99.90;;;;;;5055518;28;20031;-71
2023/12/06 00:44:25;;;;;;;11.88;7.55;;;0.10;99.90;;;;;;5055281;28;20119;-72
2023/12/06 00:46:51;;;;;;;15.18;8.57;;;0.10;99.90;;;;;;5055494;28;20025;-71
2023/12/06 00:49:18;;;;;;;12.82;7.50;;;0.10;99.90;;;;;;5054202;28;20057;-72
2023/12/06 00:51:43;;;;;;;12.38;7.75;;;0.10;99.90;;;;;;5055304;28;20021;-72
2023/12/06 00:54:09;;;;;;;10.88;6.85;;;0.10;99.90;;;;;;5070714;28;20025;-72
2023/12/06 00:56:35;;;;;;;10.48;6.93;;;0.10;99.90;;;;;;5055544;28;20025;-72
2023/12/06 00:59:00;;;;;;;11.98;7.28;;;0.10;99.90;;;;;;5054986;28;20026;-72
2023/12/06 01:01:26;;;;;;;12.23;7.20;;;0.10;99.90;;;;;;5056004;28;20377;-72
2023/12/06 01:03:52;;;;;;;10.18;6.75;;;0.10;99.90;;;;;;5055122;28;20473;-72
2023/12/06 01:06:17;;;;;;;11.32;7.30;;;0.10;99.90;;;;;;5054209;28;20024;-72
2023/12/06 01:08:44;;;;;;;10.38;6.70;;;0.10;99.90;;;;;;5069095;28;20021;-71
2023/12/06 01:11:09;;;;;;;13.05;7.88;;;0.10;99.90;;;;;;5054736;28;20120;-71
2023/12/06 01:13:35;;;;;;;11.75;7.63;;;0.10;99.90;;;;;;5054996;28;20116;-72
2023/12/06 01:16:00;;;;;;;11.30;7.22;;;0.10;99.90;;;;;;5053812;28;20032;-71
2023/12/06 01:18:26;;;;;;;11.40;7.10;;;0.20;99.90;;;;;;5054023;28;20017;-71
2023/12/06 01:20:52;;;;;;;10.23;6.25;;;0.10;99.90;;;;;;5054785;28;20116;-72
2023/12/06 01:23:17;;;;;;;10.73;7.10;;;0.20;99.90;;;;;;5053911;28;20033;-71
2023/12/06 01:25:43;;;;;;;12.00;7.38;;;0.10;99.90;;;;;;5053554;28;20033;-71
2023/12/06 01:28:09;;;;;;;13.60;7.78;;;0.10;99.90;;;;;;5069805;28;20029;-72
2023/12/06 01:30:34;;;;;;;13.40;7.50;;;0.20;99.90;;;;;;5054485;28;20104;-71
2023/12/06 01:33:00;;;;;;;11.65;7.38;;;0.10;99.90;;;;;;5054841;28;20049;-72
2023/12/06 01:35:26;;;;;;;10.75;6.60;;;0.10;99.90;;;;;;5055065;28;20420;-71
2023/12/06 01:37:51;;;;;;;10.93;6.85;;;0.10;99.90;;;;;;5055056;28;20531;-71
2023/12/06 01:40:17;;;;;;;9.30;5.85;;;0.10;99.90;;;;;;5054634;28;20087;-72
2023/12/06 01:42:46;;;;;;;10.85;6.35;;;0.10;99.90;;;;;;5053280;28;20035;-72
2023/12/06 01:45:11;;;;;;;10.50;6.60;;;0.20;99.90;;;;;;5054291;28;20025;-71
2023/12/06 01:47:38;;;;;;;9.82;6.18;;;0.10;99.90;;;;;;5053151;28;20078;-72
2023/12/06 01:50:05;;;;;;;12.23;7.15;;;0.10;99.90;;;;;;5069612;28;20436;-71
2023/12/06 01:52:31;;;;;;;14.40;7.70;;;0.10;99.90;;;;;;5054081;28;20021;-71
2023/12/06 01:54:58;;;;;;;14.15;8.32;;;0.20;99.90;;;;;;5054411;28;20032;-72
2023/12/06 01:57:28;;;;;;;13.48;8.30;;;0.10;99.90;;;;;;5052716;28;20025;-72
2023/12/06 01:59:55;;;;;;;9.50;5.60;;;0.10;99.90;;;;;;5069635;28;20029;-72
2023/12/06 02:02:21;;;;;;;12.30;7.88;;;0.20;99.90;;;;;;5053977;28;20025;-71
2023/12/06 02:04:48;;;;;;;12.57;7.68;;;0.20;99.90;;;;;;5054351;28;20492;-71
2023/12/06 02:07:16;;;;;;;12.00;7.40;;;0.20;99.90;;;;;;5053935;28;20028;-71
2023/12/06 02:09:42;;;;;;;10.82;7.30;;;0.20;99.90;;;;;;5052560;28;20041;-71
2023/12/06 02:12:07;;;;;;;11.65;6.75;;;0.20;99.90;;;;;;5053593;28;20432;-72
2023/12/06 02:14:35;;;;;;;11.23;7.45;;;0.10;99.90;;;;;;5053613;28;20040;-71
2023/12/06 02:17:05;;;;;;;14.07;7.65;;;0.10;99.90;;;;;;5053760;28;20104;-71
2023/12/06 02:19:31;;;;;;;12.20;7.45;;;0.10;99.90;;;;;;5068756;28;20107;-72
2023/12/06 02:21:58;;;;;;;12.50;7.57;;;0.10;99.90;;;;;;5052520;28;20113;-71
2023/12/06 02:24:30;;;;;;;12.75;8.32;;;0.00;99.90;;;;;;5053940;28;20032;-72
2023/12/06 02:26:56;;;;;;;14.52;8.48;;;0.00;99.90;;;;;;5053960;28;20052;-71
2023/12/06 02:29:25;;;;;;;15.07;7.88;;;-0.10;99.90;;;;;;5052167;28;20039;-71
2023/12/06 02:31:51;;;;;;;13.48;8.18;;;-0.10;99.90;;;;;;5053795;28;20025;-71
2023/12/06 02:34:21;;;;;;;12.18;7.45;;;-0.20;99.90;;;;;;5053522;28;20511;-71
2023/12/06 02:36:50;;;;;;;13.20;7.53;;;-0.20;99.90;;;;;;5053779;28;20423;-71
2023/12/06 02:39:20;;;;;;;14.35;7.85;;;-0.20;99.90;;;;;;5068878;28;20119;-71
2023/12/06 02:41:45;;;;;;;12.90;7.30;;;-0.30;99.90;;;;;;5053256;28;20550;-71
2023/12/06 02:44:11;;;;;;;12.00;7.00;;;-0.30;99.90;;;;;;5053244;28;20033;-71
2023/12/06 02:46:37;;;;;;;13.45;7.30;;;-0.30;99.90;;;;;;5053443;28;20059;-72
2023/12/06 02:49:03;;;;;;;11.20;6.70;;;-0.30;99.90;;;;;;5068718;28;20397;-72
2023/12/06 02:51:29;;;;;;;12.23;7.18;;;-0.20;99.90;;;;;;5052358;28;20029;-72
2023/12/06 02:53:55;;;;;;;10.27;6.55;;;-0.20;99.90;;;;;;5068672;28;20099;-71
2023/12/06 02:56:21;;;;;;;10.00;5.68;;;-0.30;99.90;;;;;;5053250;28;20025;-72
2023/12/06 02:58:47;;;;;;;15.02;9.15;;;-0.30;99.90;;;;;;5068478;28;20020;-72
2023/12/06 03:01:13;;;;;;;13.52;8.15;;;-0.30;99.90;;;;;;5053708;28;20422;-72
2023/12/06 03:03:38;;;;;;;15.02;7.93;;;-0.30;99.90;;;;;;5053366;28;20104;-72
2023/12/06 03:06:04;;;;;;;14.90;8.57;;;-0.30;99.90;;;;;;5053691;28;20107;-72
2023/12/06 03:08:30;;;;;;;13.63;7.45;;;-0.30;99.90;;;;;;5053189;28;20112;-72
2023/12/06 03:10:55;;;;;;;12.73;6.90;;;-0.30;99.90;;;;;;5053374;28;20041;-72
2023/12/06 03:13:21;;;;;;;13.93;7.75;;;-0.30;99.90;;;;;;5051833;28;20078;-73
2023/12/06 03:15:47;;;;;;;12.82;6.95;;;-0.40;99.90;;;;;;5053112;28;20017;-73
2023/12/06 03:18:12;;;;;;;13.30;7.50;;;-0.40;99.90;;;;;;5053318;28;20074;-73
2023/12/06 03:20:38;;;;;;;12.65;7.15;;;-0.40;99.90;;;;;;5052970;28;20064;-73
2023/12/06 03:23:04;;;;;;;13.45;7.15;;;-0.40;99.90;;;;;;5068429;28;20029;-73
2023/12/06 03:25:29;;;;;;;12.75;6.88;;;-0.40;99.90;;;;;;5053233;28;20037;-73
2023/12/06 03:27:55;;;;;;;12.10;7.38;;;-0.40;99.90;;;;;;5052737;28;20056;-73
2023/12/06 03:30:21;;;;;;;11.75;7.03;;;-0.30;99.90;;;;;;5052784;28;20485;-73
2023/12/06 03:32:46;;;;;;;13.20;7.75;;;-0.30;99.90;;;;;;5056866;28;20026;-73
2023/12/06 03:35:12;;;;;;;12.13;7.20;;;-0.30;99.90;;;;;;5056830;28;20500;-73
2023/12/06 03:37:38;;;;;;;11.75;6.85;;;-0.30;99.90;;;;;;5056738;28;20384;-73
2023/12/06 03:40:05;;;;;;;11.75;7.30;;;-0.30;99.90;;;;;;5057018;28;20388;-73
2023/12/06 03:42:30;;;;;;;14.93;8.20;;;-0.30;99.90;;;;;;5056526;28;20025;-73
2023/12/06 03:44:57;;;;;;;15.82;9.10;;;-0.30;99.90;;;;;;5056405;28;20025;-73
2023/12/06 03:47:23;;;;;;;14.63;8.27;;;-0.20;99.90;;;;;;5056573;28;20108;-73
2023/12/06 03:49:48;;;;;;;16.33;8.23;;;-0.30;99.90;;;;;;5056478;28;20196;-73
2023/12/06 03:52:14;;;;;;;14.05;8.18;;;-0.30;99.90;;;;;;5056453;28;20048;-73
2023/12/06 03:54:40;;;;;;;16.95;8.50;;;-0.40;99.90;;;;;;5056707;28;20078;-73
2023/12/06 03:57:05;;;;;;;13.35;7.32;;;-0.40;99.90;;;;;;5071756;28;20021;-73
2023/12/06 03:59:31;;;;;;;15.48;8.25;;;-0.40;99.90;;;;;;5056216;28;20035;-73
2023/12/06 04:01:57;;;;;;;16.00;8.63;;;-0.40;99.90;;;;;;5056568;28;20044;-73
2023/12/06 04:04:22;;;;;;;24.40;9.43;;;-0.30;99.90;;;;;;5056382;28;20037;-73
2023/12/06 04:06:48;;;;;;;22.08;10.98;;;-0.40;99.90;;;;;;5056221;28;20033;-73
2023/12/06 04:09:14;;;;;;;17.40;10.13;;;-0.40;99.90;;;;;;5054977;28;20033;-73
2023/12/06 04:11:39;;;;;;;19.65;9.50;;;-0.40;99.90;;;;;;5054757;28;20040;-73
2023/12/06 04:14:07;;;;;;;14.88;7.78;;;-0.50;99.90;;;;;;5056016;28;20025;-73
2023/12/06 04:16:32;;;;;;;15.13;7.55;;;-0.50;99.90;;;;;;5056362;28;20048;-73
2023/12/06 04:18:58;;;;;;;14.45;7.65;;;-0.40;99.90;;;;;;5056293;28;20373;-73
2023/12/06 04:21:24;;;;;;;14.40;7.28;;;-0.40;99.90;;;;;;5056192;28;20044;-73
2023/12/06 04:23:50;;;;;;;14.32;7.20;;;-0.40;99.90;;;;;;5055928;28;20033;-73
2023/12/06 04:26:16;;;;;;;12.07;7.05;;;-0.40;99.90;;;;;;5055886;28;20035;-73
2023/12/06 04:28:41;;;;;;;15.35;7.32;;;-0.40;99.90;;;;;;5055581;28;20071;-73
2023/12/06 04:31:07;;;;;;;12.98;7.22;;;-0.40;99.90;;;;;;5055654;28;20094;-73
2023/12/06 04:33:33;;;;;;;14.70;7.47;;;-0.40;99.90;;;;;;5055807;28;20048;-73
2023/12/06 04:35:58;;;;;;;15.73;8.35;;;-0.40;99.90;;;;;;5055906;28;20519;-73
2023/12/06 04:38:24;;;;;;;17.88;8.80;;;-0.40;99.90;;;;;;5056228;28;20373;-73
2023/12/06 04:40:50;;;;;;;19.08;9.02;;;-0.40;99.90;;;;;;5055487;28;20025;-73
2023/12/06 04:43:18;;;;;;;15.07;8.32;;;-0.40;99.90;;;;;;5054994;28;20029;-73
2023/12/06 04:45:44;;;;;;;19.00;9.73;;;-0.40;99.90;;;;;;5055442;28;20053;-73
2023/12/06 04:48:09;;;;;;;18.95;9.75;;;-0.40;99.90;;;;;;5055509;28;20065;-73
2023/12/06 04:50:35;;;;;;;17.40;9.50;;;-0.40;99.90;;;;;;5055321;28;20036;-73
2023/12/06 04:53:01;;;;;;;19.48;10.48;;;-0.40;99.90;;;;;;5054208;28;20484;-73
2023/12/06 04:55:26;;;;;;;20.08;10.50;;;-0.50;99.90;;;;;;5055335;28;20504;-73
2023/12/06 04:57:52;;;;;;;18.52;9.95;;;-0.40;99.90;;;;;;5055046;28;20028;-74
2023/12/06 05:00:18;;;;;;;17.67;9.25;;;-0.40;99.90;;;;;;5055445;28;20029;-73
2023/12/06 05:02:44;;;;;;;18.33;9.40;;;-0.50;99.90;;;;;;5055200;28;20032;-73
2023/12/06 05:05:10;;;;;;;15.45;7.95;;;-0.50;99.90;;;;;;5055434;28;20033;-73
2023/12/06 05:07:35;;;;;;;18.02;8.77;;;-0.50;99.90;;;;;;5054223;28;20083;-73
2023/12/06 05:10:02;;;;;;;14.43;8.05;;;-0.50;99.90;;;;;;5055104;28;20029;-73
2023/12/06 05:12:28;;;;;;;14.32;8.07;;;-0.50;99.90;;;;;;5054733;28;20037;-73
2023/12/06 05:14:53;;;;;;;17.92;9.02;;;-0.50;99.90;;;;;;5054816;28;20443;-73
2023/12/06 05:17:19;;;;;;;24.98;12.35;;;-0.50;99.90;;;;;;5055463;28;20350;-73
2023/12/06 05:19:45;;;;;;;23.08;11.32;;;-0.50;99.90;;;;;;5054819;28;20163;-73
2023/12/06 05:22:10;;;;;;;18.50;9.82;;;-0.50;99.90;;;;;;5054749;28;20033;-73
2023/12/06 05:24:36;;;;;;;18.15;9.27;;;-0.50;99.90;;;;;;5055025;28;20123;-73
2023/12/06 05:27:02;;;;;;;15.65;8.40;;;-0.50;99.90;;;;;;5054695;28;20029;-73
2023/12/06 05:29:28;;;;;;;16.20;9.07;;;-0.40;99.90;;;;;;5054472;28;20029;-73
2023/12/06 05:31:53;;;;;;;17.67;8.07;;;-0.50;99.90;;;;;;5054546;28;20537;-73
2023/12/06 05:34:19;;;;;;;17.02;8.77;;;-0.40;99.90;;;;;;5070003;28;20051;-73
2023/12/06 05:36:45;;;;;;;16.85;8.38;;;-0.40;99.90;;;;;;5054776;28;20358;-73
2023/12/06 05:39:10;;;;;;;15.88;8.15;;;-0.40;99.90;;;;;;5054747;28;20385;-73
2023/12/06 05:41:36;;;;;;;17.88;9.50;;;-0.40;99.90;;;;;;5054543;28;20443;-73
2023/12/06 05:44:05;;;;;;;19.10;9.30;;;-0.40;99.90;;;;;;5069627;28;20033;-73
2023/12/06 05:46:31;;;;;;;14.48;8.10;;;-0.40;99.90;;;;;;5054667;28;20025;-73
2023/12/06 05:48:56;;;;;;;22.30;9.13;;;-0.40;99.90;;;;;;5054354;28;20025;-73
2023/12/06 05:51:22;;;;;;;20.92;9.05;;;-0.40;99.90;;;;;;5054226;28;20527;-73
2023/12/06 05:53:49;;;;;;;20.80;8.98;;;-0.40;99.90;;;;;;5053474;28;20021;-74
2023/12/06 05:56:14;;;;;;;22.20;12.07;;;-0.40;99.90;;;;;;5054151;28;20026;-74
2023/12/06 05:58:40;;;;;;;20.63;12.07;;;-0.40;99.90;;;;;;5054315;28;20385;-74
2023/12/06 06:01:06;;;;;;;26.23;12.93;;;-0.40;99.90;;;;;;5053988;28;20104;-74
2023/12/06 06:03:32;;;;;;;25.42;13.18;;;-0.40;99.90;;;;;;5054285;28;20055;-74
2023/12/06 06:05:57;;;;;;;23.45;11.57;;;-0.40;99.90;;;;;;5052822;28;20033;-74
2023/12/06 06:08:23;;;;;;;20.27;10.75;;;-0.40;99.90;;;;;;5052680;28;20397;-74
2023/12/06 06:10:48;;;;;;;25.75;11.00;;;-0.40;99.90;;;;;;5053702;28;20041;-74
2023/12/06 06:13:14;;;;;;;19.42;9.98;;;-0.40;99.90;;;;;;5053675;28;20032;-74
2023/12/06 06:15:40;;;;;;;22.13;10.40;;;-0.40;99.90;;;;;;5053817;28;20032;-74
2023/12/06 06:18:05;;;;;;;20.48;10.57;;;-0.30;99.90;;;;;;5053794;28;20029;-73
2023/12/06 06:20:33;;;;;;;18.42;9.77;;;-0.40;99.90;;;;;;5053676;28;20035;-74
2023/12/06 06:22:59;;;;;;;18.25;9.50;;;-0.30;99.90;;;;;;5053715;28;20017;-74
2023/12/06 06:25:25;;;;;;;17.13;9.70;;;-0.40;99.90;;;;;;5053667;28;20037;-74
2023/12/06 06:27:51;;;;;;;21.52;10.88;;;-0.40;99.90;;;;;;5053614;28;20029;-74
2023/12/06 06:30:17;;;;;;;16.83;9.57;;;-0.40;99.90;;;;;;5053219;28;20477;-74
2023/12/06 06:32:43;;;;;;;21.70;11.32;;;-0.40;99.90;;;;;;5054093;28;20036;-74
2023/12/06 06:35:09;;;;;;;18.30;10.25;;;-0.40;99.90;;;;;;5053636;28;20059;-74
2023/12/06 06:37:34;;;;;;;19.02;10.50;;;-0.40;99.90;;;;;;5068932;28;20021;-74
2023/12/06 06:40:00;;;;;;;19.20;11.48;;;-0.40;99.90;;;;;;5053743;28;20033;-73
2023/12/06 06:42:26;;;;;;;21.23;11.57;;;-0.40;99.90;;;;;;5053307;28;20040;-74
2023/12/06 06:44:52;;;;;;;20.30;11.38;;;-0.40;99.90;;;;;;5053207;28;20392;-74
2023/12/06 06:47:18;;;;;;;27.20;14.27;;;-0.30;99.90;;;;;;5053629;28;20029;-74
2023/12/06 06:49:45;;;;;;;24.27;12.82;;;-0.30;99.90;;;;;;5053255;28;20061;-74
2023/12/06 06:52:11;;;;;;;23.10;11.90;;;-0.30;99.90;;;;;;5053210;28;20025;-74
2023/12/06 06:54:37;;;;;;;23.10;11.73;;;-0.30;99.90;;;;;;5053541;28;20048;-74
2023/12/06 06:57:03;;;;;;;24.20;13.02;;;-0.30;99.90;;;;;;5053296;28;20119;-74
2023/12/06 06:59:29;;;;;;;25.17;13.85;;;-0.40;99.90;;;;;;5053123;28;20035;-74
2023/12/06 07:01:55;;;;;;;25.55;14.00;;;-0.30;99.90;;;;;;5053193;28;20025;-74
2023/12/06 07:04:21;;;;;;;26.13;14.43;;;-0.30;99.90;;;;;;5053208;28;20079;-74
2023/12/06 07:06:46;;;;;;;25.40;14.20;;;-0.30;99.90;;;;;;5057618;28;20021;-74
2023/12/06 07:09:12;;;;;;;27.00;14.63;;;-0.30;99.90;;;;;;5057243;28;20493;-74
2023/12/06 07:11:38;;;;;;;27.90;14.30;;;-0.30;99.90;;;;;;5057048;28;20043;-74
2023/12/06 07:14:03;;;;;;;27.05;14.02;;;-0.20;99.90;;;;;;5056914;28;20530;-74
2023/12/06 07:16:29;;;;;;;23.13;14.45;;;-0.20;99.90;;;;;;5057207;28;20029;-74
2023/12/06 07:18:55;;;;;;;22.48;12.95;;;-0.10;99.90;;;;;;5055866;28;20460;-74
2023/12/06 07:21:20;;;;;;;24.23;13.52;;;-0.10;99.90;;;;;;5057182;28;20033;-74
2023/12/06 07:23:46;;;;;;;22.02;12.40;;;-0.10;99.90;;;;;;5057082;28;20062;-74
2023/12/06 07:26:11;;;;;;;18.38;11.20;;;-0.10;99.90;;;;;;5057011;28;20045;-74
2023/12/06 07:28:37;;;;;;;18.00;9.82;;;0.00;99.90;;;;;;5056792;28;20542;-74
2023/12/06 07:31:03;;;;;;;17.13;10.10;;;0.00;99.90;;;;;;5038902;28;20039;-74
2023/12/06 07:33:29;;;;;;;19.50;10.75;;;0.00;99.90;;;;;;5056883;28;20029;-74
2023/12/06 07:35:54;;;;;;;16.65;9.88;;;0.00;99.90;;;;;;5056828;28;20025;-74
2023/12/06 07:38:21;;;;;;;17.17;9.82;;;0.10;99.90;;;;;;5056819;28;20496;-74
2023/12/06 07:40:47;;;;;;;15.75;9.75;;;0.10;99.90;;;;;;5056829;28;20025;-74
2023/12/06 07:43:13;;;;;;;14.23;7.95;;;0.10;99.90;;;;;;5055534;28;20108;-73
2023/12/06 07:45:39;;;;;;;15.40;8.30;;;0.20;99.90;;;;;;5056401;28;20117;-74
2023/12/06 07:48:05;;;;;;;19.48;9.98;;;0.20;99.90;;;;;;5056620;28;20485;-74
2023/12/06 07:50:31;;;;;;;15.10;9.07;;;0.10;99.90;;;;;;5056395;28;20029;-74
2023/12/06 07:52:56;;;;;;;16.48;9.68;;;0.20;99.90;;;;;;5056521;28;20021;-74
2023/12/06 07:55:22;;;;;;;21.67;10.48;;;0.10;99.90;;;;;;5056438;28;20051;-74
2023/12/06 07:57:48;;;;;;;24.17;13.32;;;0.20;99.90;;;;;;5055754;28;20021;-74
2023/12/06 08:00:14;;;;;;;25.65;14.10;;;0.10;99.90;;;;;;5056133;28;20033;-74
2023/12/06 08:02:42;;;;;;;22.60;12.65;;;0.20;99.90;;;;;;5056345;28;20489;-74
2023/12/06 08:05:11;;;;;;;28.67;12.35;;;0.20;99.90;;;;;;5056319;28;20053;-74
2023/12/06 08:07:37;;;;;;;20.58;10.80;;;0.20;99.90;;;;;;5056542;28;20084;-74
2023/12/06 08:10:12;;;;;;;24.55;12.68;;;0.20;99.90;;;;;;5071579;28;20037;-74
2023/12/06 08:12:39;;;;;;;28.05;13.20;;;0.20;99.90;;;;;;5071677;28;20111;-74
2023/12/06 08:15:05;;;;;;;27.08;13.48;;;0.20;99.90;;;;;;5055856;28;20029;-74
2023/12/06 08:17:31;;;;;;;25.95;14.07;;;0.20;99.90;;;;;;5055307;28;20064;-74
2023/12/06 08:19:57;;;;;;;23.25;12.85;;;0.20;99.90;;;;;;5056013;28;20033;-74
2023/12/06 08:22:23;;;;;;;26.65;13.85;;;0.20;99.90;;;;;;5055917;28;20481;-74
2023/12/06 08:24:49;;;;;;;26.65;14.25;;;0.30;99.90;;;;;;5055944;28;20032;-74
2023/12/06 08:27:14;;;;;;;22.50;13.45;;;0.30;99.90;;;;;;5056124;28;20051;-74
2023/12/06 08:29:40;;;;;;;20.60;12.85;;;0.30;99.90;;;;;;5055680;28;20056;-74
2023/12/06 08:32:07;;;;;;;20.75;11.75;;;0.40;99.90;;;;;;5055786;28;20029;-74
2023/12/06 08:34:32;;;;;;;18.55;11.35;;;0.40;99.90;;;;;;5056318;28;20424;-74
2023/12/06 08:36:58;;;;;;;17.60;10.38;;;0.40;99.90;;;;;;5055709;28;20028;-74
2023/12/06 08:39:24;;;;;;;18.52;10.48;;;0.50;99.90;;;;;;5055905;28;20025;-74
2023/12/06 08:41:49;;;;;;;20.60;10.75;;;0.50;99.90;;;;;;5055460;28;20029;-74
2023/12/06 08:44:15;;;;;;;18.50;10.45;;;0.50;99.90;;;;;;5055362;28;20036;-74
2023/12/06 08:46:42;;;;;;;17.83;10.35;;;0.50;99.90;;;;;;5055509;28;20025;-74
2023/12/06 08:49:08;;;;;;;17.92;9.60;;;0.60;99.90;;;;;;5055477;28;20029;-74
2023/12/06 08:51:33;;;;;;;23.20;10.23;;;0.60;99.90;;;;;;5055826;28;20447;-74
2023/12/06 08:53:59;;;;;;;19.98;9.32;;;0.60;99.90;;;;;;5055387;28;20060;-74
2023/12/06 08:56:25;;;;;;;20.08;9.45;;;0.60;99.90;;;;;;5055341;28;20025;-74
2023/12/06 08:58:50;;;;;;;17.00;9.00;;;0.70;99.90;;;;;;5055039;28;20108;-72
2023/12/06 09:01:16;;;;;;;19.95;10.35;;;0.70;99.90;;;;;;5070579;28;20075;-72
2023/12/06 09:03:42;;;;;;;24.75;11.82;;;0.70;99.90;;;;;;5055517;28;20478;-72
2023/12/06 09:06:09;;;;;;;20.38;11.45;;;0.70;99.90;;;;;;5070614;28;20067;-72
2023/12/06 09:08:34;;;;;;;27.65;13.77;;;0.70;99.90;;;;;;5055108;28;20020;-72
2023/12/06 09:11:00;;;;;;;23.48;12.18;;;0.70;99.90;;;;;;5055318;28;20450;-73
2023/12/06 09:13:26;;;;;;;18.45;11.00;;;0.80;99.90;;;;;;5055293;28;20032;-74
2023/12/06 09:15:52;;;;;;;22.15;11.57;;;0.80;99.90;;;;;;5054635;28;20022;-73
2023/12/06 09:18:18;;;;;;;20.27;10.82;;;0.80;99.90;;;;;;5055209;28;20036;-74
2023/12/06 09:20:44;;;;;;;21.48;10.73;;;0.90;99.90;;;;;;5054821;28;20087;-75
2023/12/06 09:23:09;;;;;;;25.33;14.13;;;1.00;99.90;;;;;;5054865;28;20115;-75
2023/12/06 09:25:35;;;;;;;32.30;15.93;;;1.00;99.90;;;;;;5054826;28;20393;-74
2023/12/06 09:28:03;;;;;;;74.53;30.83;;;1.00;99.90;;;;;;5054333;28;20493;-75
2023/12/06 09:30:29;;;;;;;73.32;32.10;;;1.10;99.90;;;;;;5053930;28;20106;-73
2023/12/06 09:32:56;;;;;;;57.80;28.15;;;1.10;99.90;;;;;;5055018;28;20423;-74
2023/12/06 09:35:22;;;;;;;48.88;25.33;;;1.10;99.90;;;;;;5054867;28;20025;-75
2023/12/06 09:37:49;;;;;;;41.83;21.95;;;1.10;99.90;;;;;;5054801;28;20033;-74
2023/12/06 09:40:15;;;;;;;34.63;17.63;;;1.10;99.90;;;;;;5054524;28;20021;-74
2023/12/06 09:42:46;;;;;;;22.73;12.50;;;1.20;99.90;;;;;;5054390;28;20052;-73
2023/12/06 09:45:14;;;;;;;18.95;10.75;;;1.20;99.90;;;;;;5054418;28;20100;-73
2023/12/06 09:47:42;;;;;;;17.40;9.88;;;1.20;99.90;;;;;;5054466;28;20163;-74
2023/12/06 09:50:10;;;;;;;23.17;14.68;;;1.30;99.90;;;;;;5054193;28;20033;-74
2023/12/06 09:52:35;;;;;;;28.20;17.13;;;1.30;99.90;;;;;;5054311;28;20096;-74
2023/12/06 09:55:01;;;;;;;35.00;17.85;;;1.30;99.90;;;;;;5054239;28;20480;-74
2023/12/06 09:57:27;;;;;;;32.53;18.27;;;1.40;99.90;;;;;;5054290;28;20025;-74
2023/12/06 09:59:53;;;;;;;37.92;22.75;;;1.40;99.90;;;;;;5052770;28;20091;-73
2023/12/06 10:02:18;;;;;;;30.33;17.83;;;1.50;99.90;;;;;;5054074;28;20025;-74
2023/12/06 10:04:44;;;;;;;30.30;16.50;;;1.50;99.90;;;;;;5054292;28;20036;-74
2023/12/06 10:07:10;;;;;;;28.50;15.55;;;1.50;99.90;;;;;;5054002;28;20033;-74
2023/12/06 10:09:36;;;;;;;25.73;14.68;;;1.50;99.90;;;;;;5053886;28;20533;-74
2023/12/06 10:12:21;;;;;;;24.73;14.85;;;1.50;99.90;;;;;;5053752;28;20373;-73
2023/12/06 10:14:57;;;;;;;27.27;15.07;;;1.50;99.90;;;;;;5053653;28;20024;-73
2023/12/06 10:17:23;;;;;;;24.02;13.52;;;1.50;99.90;;;;;;5053825;28;20024;-74
2023/12/06 10:19:49;;;;;;;29.33;14.60;;;1.50;99.90;;;;;;5053789;28;20021;-75
2023/12/06 10:22:15;;;;;;;25.00;14.07;;;1.50;99.90;;;;;;5053960;28;20116;-74
2023/12/06 10:24:43;;;;;;;26.73;14.70;;;1.40;99.90;;;;;;5053716;28;20061;-74
2023/12/06 10:27:12;;;;;;;24.35;14.10;;;1.40;99.90;;;;;;5053701;28;20033;-74
2023/12/06 10:29:38;;;;;;;29.63;15.98;;;1.40;99.90;;;;;;5053275;28;20032;-73
2023/12/06 10:32:05;;;;;;;25.25;14.45;;;1.40;99.90;;;;;;5053508;28;20033;-74
2023/12/06 10:34:31;;;;;;;22.88;13.85;;;1.40;99.90;;;;;;5054087;28;20025;-75
2023/12/06 10:36:59;;;;;;;24.75;14.02;;;1.40;99.90;;;;;;5053574;28;20362;-74
2023/12/06 10:39:29;;;;;;;26.33;14.23;;;1.40;99.90;;;;;;5053606;28;20025;-74
2023/12/06 10:41:58;;;;;;;25.80;13.50;;;1.40;99.90;;;;;;5053366;28;20056;-74
2023/12/06 10:44:24;;;;;;;26.48;14.13;;;1.40;99.90;;;;;;5053591;28;20036;-71
2023/12/06 10:46:51;;;;;;;23.40;12.25;;;1.50;99.90;;;;;;5053365;28;20033;-71
2023/12/06 10:49:17;;;;;;;24.23;12.07;;;1.50;99.90;;;;;;5053281;28;20017;-71
2023/12/06 10:51:44;;;;;;;17.75;10.80;;;1.40;99.90;;;;;;5053421;28;20091;-71
2023/12/06 10:54:12;;;;;;;22.45;13.90;;;1.40;99.90;;;;;;5053564;28;20078;-71
2023/12/06 10:56:39;;;;;;;23.23;12.70;;;1.40;99.90;;;;;;5053268;28;20031;-71
2023/12/06 10:59:06;;;;;;;19.80;11.30;;;1.40;99.90;;;;;;5053022;28;20437;-71
2023/12/06 11:01:32;;;;;;;18.65;11.02;;;1.40;99.90;;;;;;5053147;28;20028;-71
2023/12/06 11:03:59;;;;;;;22.52;12.88;;;1.40;99.90;;;;;;5053250;28;20094;-71
2023/12/06 11:06:43;;;;;;;24.90;12.27;;;1.40;99.90;;;;;;5053150;28;20025;-71
2023/12/06 11:09:39;;;;;;;21.17;11.52;;;1.40;99.90;;;;;;5053236;28;20021;-71
2023/12/06 11:12:30;;;;;;;20.58;11.85;;;1.30;99.90;;;;;;5052955;28;20025;-71
2023/12/06 11:15:20;;;;;;;21.15;9.70;;;1.30;99.90;;;;;;5053056;28;20024;-72
2023/12/06 11:18:00;;;;;;;21.48;11.45;;;1.30;99.90;;;;;;5052969;28;20067;-73
2023/12/06 11:20:26;;;;;;;18.15;10.48;;;1.40;99.90;;;;;;5052996;28;20025;-73
2023/12/06 11:22:52;;;;;;;21.08;11.88;;;1.40;99.90;;;;;;5051981;28;20033;-73
2023/12/06 11:25:19;;;;;;;16.20;10.25;;;1.40;99.90;;;;;;5052986;28;20029;-73
2023/12/06 11:27:45;;;;;;;20.40;11.35;;;1.40;99.90;;;;;;5053286;28;20037;-73
2023/12/06 11:30:17;;;;;;;22.38;12.23;;;1.50;99.90;;;;;;5052714;28;20063;-72
2023/12/06 11:32:44;;;;;;;20.67;11.13;;;1.50;99.90;;;;;;5052887;28;20111;-73
2023/12/06 11:35:10;;;;;;;63.92;41.22;;;1.60;99.90;;;;;;5053147;28;20051;-73
2023/12/06 11:37:36;;;;;;;33.88;20.27;;;1.70;99.90;;;;;;5052865;28;20025;-73
2023/12/06 11:40:18;;;;;;;27.10;14.77;;;1.80;99.90;;;;;;5052876;28;20029;-73
2023/12/06 11:43:01;;;;;;;27.15;14.43;;;1.90;99.90;;;;;;5052818;28;20033;-73
2023/12/06 11:45:27;;;;;;;28.08;14.60;;;1.90;99.90;;;;;;5052707;28;20358;-73
2023/12/06 11:47:53;;;;;;;25.33;14.32;;;2.00;99.90;;;;;;5052800;28;20029;-73
2023/12/06 11:50:21;;;;;;;29.52;16.05;;;2.00;99.90;;;;;;5068077;28;20029;-72
2023/12/06 11:52:50;;;;;;;28.58;15.43;;;2.00;99.90;;;;;;5055235;28;20017;-73
2023/12/06 11:55:18;;;;;;;25.80;13.25;;;2.00;99.90;;;;;;5056659;28;20025;-72
2023/12/06 11:58:00;;;;;;;24.38;13.38;;;2.00;99.90;;;;;;5056733;28;20028;-72
2023/12/06 12:00:27;;;;;;;20.98;13.00;;;1.90;99.90;;;;;;5056203;28;20434;-71
2023/12/06 12:02:54;;;;;;;20.70;12.48;;;2.00;99.90;;;;;;5056327;28;20503;-71
2023/12/06 12:05:20;;;;;;;23.85;13.80;;;2.00;99.90;;;;;;5056351;28;20048;-71
2023/12/06 12:07:46;;;;;;;23.67;14.00;;;2.00;99.90;;;;;;5056582;28;20029;-71
2023/12/06 12:10:13;;;;;;;27.42;16.75;;;2.10;99.90;;;;;;5056095;28;20075;-72
2023/12/06 12:12:39;;;;;;;28.75;16.13;;;2.10;99.90;;;;;;5056142;28;20040;-71
2023/12/06 12:15:05;;;;;;;30.38;17.65;;;2.10;99.90;;;;;;5055020;28;20021;-71
2023/12/06 12:17:31;;;;;;;30.90;17.42;;;2.00;99.90;;;;;;5054844;28;20079;-71
2023/12/06 12:19:57;;;;;;;38.95;21.83;;;2.00;99.90;;;;;;5056054;28;20029;-71
2023/12/06 12:22:22;;;;;;;32.65;18.45;;;2.00;99.90;;;;;;5055962;28;20537;-71
2023/12/06 12:24:48;;;;;;;29.23;16.65;;;1.90;99.90;;;;;;5057052;28;20033;-71
2023/12/06 12:27:18;;;;;;;33.30;17.88;;;1.80;99.90;;;;;;5055891;28;20027;-71
2023/12/06 12:29:44;;;;;;;38.83;22.80;;;1.80;99.90;;;;;;5055799;28;20055;-71
2023/12/06 12:32:11;;;;;;;37.58;22.73;;;1.80;99.90;;;;;;5056269;28;20700;-71
2023/12/06 12:34:37;;;;;;;36.25;20.92;;;1.80;99.90;;;;;;5056037;28;20063;-71